CFG9CV EDDM-LEPA
Flight info
| Callsign | CFG9CV |
|---|---|
| Flight time | N/A |
| Altitude | 35000 |
| Route | TURBU6E/08R TURBU Y107 TOBSO DCT BAKOR DCT SUMIR DCT MISPO DCT PIDAD DCT TALEP DCT RARQU DCT BALEN UT250 RIXOT |
| Aircraft | A321/M-SDE3FGHIRWY/LB1 |
Departure
| Time | 2026-05-01 07:41 |
|---|---|
| Airport | Munich Airport (EDDM) |
Arrival
| Time | N/A |
|---|---|
| Airport | Palma de Mallorca Airport (LEPA) |
| Time | Latitude | Longitude | Altitude | Speed | Heading |
|---|---|---|---|---|---|
| 2026-05-01 07:23 | 48.35134 | 11.78340 | 1461 ft | 0 kts | 83° |
| 2026-05-01 07:27 | 48.35132 | 11.78316 | 1458 ft | 3 kts | 83° |
| 2026-05-01 07:27 | 48.35129 | 11.78280 | 1460 ft | 4 kts | 83° |
| 2026-05-01 07:28 | 48.35126 | 11.78239 | 1458 ft | 4 kts | 83° |
| 2026-05-01 07:28 | 48.35124 | 11.78213 | 1460 ft | 2 kts | 50° |
| 2026-05-01 07:28 | 48.35115 | 11.78202 | 1461 ft | 2 kts | 6° |
| 2026-05-01 07:28 | 48.35104 | 11.78201 | 1456 ft | 2 kts | 358° |
| 2026-05-01 07:29 | 48.35095 | 11.78201 | 1460 ft | 0 kts | 354° |
| 2026-05-01 07:34 | 48.35123 | 11.78197 | 1458 ft | 10 kts | 354° |
| 2026-05-01 07:35 | 48.35205 | 11.78115 | 1463 ft | 18 kts | 275° |
| 2026-05-01 07:35 | 48.35192 | 11.77932 | 1466 ft | 17 kts | 263° |
| 2026-05-01 07:35 | 48.35143 | 11.77846 | 1464 ft | 8 kts | 172° |
| 2026-05-01 07:35 | 48.35078 | 11.77858 | 1463 ft | 13 kts | 187° |
| 2026-05-01 07:36 | 48.34961 | 11.77840 | 1466 ft | 21 kts | 178° |
| 2026-05-01 07:36 | 48.34808 | 11.77869 | 1466 ft | 22 kts | 172° |
| 2026-05-01 07:36 | 48.34675 | 11.77877 | 1466 ft | 16 kts | 210° |
| 2026-05-01 07:36 | 48.34650 | 11.77735 | 1464 ft | 14 kts | 265° |
| 2026-05-01 07:37 | 48.34628 | 11.77465 | 1464 ft | 14 kts | 262° |
| 2026-05-01 07:37 | 48.34615 | 11.77282 | 1466 ft | 23 kts | 264° |
| 2026-05-01 07:37 | 48.34593 | 11.76980 | 1459 ft | 33 kts | 264° |
| 2026-05-01 07:38 | 48.34567 | 11.76643 | 1466 ft | 32 kts | 263° |
| 2026-05-01 07:38 | 48.34543 | 11.76324 | 1466 ft | 30 kts | 263° |
| 2026-05-01 07:38 | 48.34495 | 11.75715 | 1466 ft | 33 kts | 263° |
| 2026-05-01 07:39 | 48.34466 | 11.75362 | 1466 ft | 24 kts | 265° |
| 2026-05-01 07:39 | 48.34419 | 11.75218 | 1462 ft | 14 kts | 202° |
| 2026-05-01 07:39 | 48.34194 | 11.75249 | 1458 ft | 25 kts | 172° |
| 2026-05-01 07:40 | 48.34088 | 11.75378 | 1474 ft | 20 kts | 88° |
| 2026-05-01 07:40 | 48.34089 | 11.75402 | 1474 ft | 1 kts | 85° |
| 2026-05-01 07:40 | 48.34105 | 11.75631 | 1472 ft | 56 kts | 83° |
| 2026-05-01 07:40 | 48.34177 | 11.76539 | 1458 ft | 117 kts | 83° |
| 2026-05-01 07:41 | 48.34288 | 11.77978 | 1472 ft | 162 kts | 83° |
| 2026-05-01 07:41 | 48.34435 | 11.79861 | 1797 ft | 183 kts | 83° |
| 2026-05-01 07:41 | 48.34718 | 11.83307 | 3269 ft | 165 kts | 84° |
| 2026-05-01 07:42 | 48.34848 | 11.85121 | 3423 ft | 184 kts | 84° |
| 2026-05-01 07:42 | 48.34992 | 11.87103 | 3566 ft | 202 kts | 84° |
| 2026-05-01 07:42 | 48.35152 | 11.89287 | 3706 ft | 218 kts | 83° |
| 2026-05-01 07:42 | 48.35327 | 11.91631 | 3817 ft | 235 kts | 83° |
| 2026-05-01 07:43 | 48.35242 | 11.94171 | 4089 ft | 251 kts | 107° |
| 2026-05-01 07:43 | 48.34494 | 11.96512 | 4826 ft | 250 kts | 128° |
| 2026-05-01 07:43 | 48.31843 | 11.99929 | 6168 ft | 254 kts | 143° |
| 2026-05-01 07:44 | 48.28746 | 12.02465 | 7433 ft | 260 kts | 168° |
| 2026-05-01 07:44 | 48.24938 | 12.02530 | 8284 ft | 282 kts | 183° |
| 2026-05-01 07:45 | 48.22961 | 12.02401 | 8923 ft | 286 kts | 182° |
| 2026-05-01 07:45 | 48.20964 | 12.02280 | 9565 ft | 288 kts | 182° |
| 2026-05-01 07:45 | 48.18975 | 12.02163 | 10177 ft | 291 kts | 182° |
| 2026-05-01 07:45 | 48.16940 | 12.02045 | 10784 ft | 294 kts | 182° |
| 2026-05-01 07:46 | 48.14886 | 12.01927 | 11389 ft | 297 kts | 182° |
| 2026-05-01 07:46 | 48.12811 | 12.01808 | 11980 ft | 299 kts | 182° |
| 2026-05-01 07:46 | 48.08611 | 12.01566 | 13163 ft | 305 kts | 182° |
| 2026-05-01 07:47 | 48.06496 | 12.01217 | 13703 ft | 309 kts | 193° |
| 2026-05-01 07:47 | 48.04360 | 12.00364 | 13847 ft | 327 kts | 196° |
| 2026-05-01 07:47 | 48.02114 | 11.99416 | 13977 ft | 344 kts | 196° |
| 2026-05-01 07:47 | 47.99751 | 11.98410 | 14128 ft | 360 kts | 196° |
| 2026-05-01 07:48 | 47.94850 | 11.96320 | 15053 ft | 370 kts | 196° |
| 2026-05-01 07:48 | 47.92357 | 11.95294 | 15572 ft | 373 kts | 193° |
| 2026-05-01 07:48 | 47.89773 | 11.94814 | 16070 ft | 377 kts | 181° |
| 2026-05-01 07:49 | 47.87136 | 11.94781 | 16571 ft | 379 kts | 180° |
| 2026-05-01 07:49 | 47.81820 | 11.94707 | 17534 ft | 385 kts | 181° |
| 2026-05-01 07:49 | 47.79131 | 11.94657 | 17991 ft | 388 kts | 181° |
| 2026-05-01 07:50 | 47.76422 | 11.94606 | 18425 ft | 391 kts | 181° |
| 2026-05-01 07:50 | 47.70945 | 11.94503 | 19293 ft | 396 kts | 181° |
| 2026-05-01 07:50 | 47.68178 | 11.94452 | 19694 ft | 399 kts | 181° |
| 2026-05-01 07:51 | 47.65386 | 11.94401 | 20049 ft | 403 kts | 181° |
| 2026-05-01 07:51 | 47.62568 | 11.94349 | 20390 ft | 407 kts | 181° |
| 2026-05-01 07:51 | 47.59771 | 11.94296 | 20802 ft | 408 kts | 181° |
| 2026-05-01 07:52 | 47.54050 | 11.94191 | 21569 ft | 413 kts | 181° |
| 2026-05-01 07:52 | 47.51169 | 11.94144 | 21950 ft | 415 kts | 181° |
| 2026-05-01 07:52 | 47.48271 | 11.94095 | 22322 ft | 417 kts | 181° |
| 2026-05-01 07:53 | 47.42462 | 11.93826 | 23095 ft | 420 kts | 188° |
| 2026-05-01 07:53 | 47.39567 | 11.93103 | 23366 ft | 423 kts | 190° |
| 2026-05-01 07:53 | 47.36659 | 11.92335 | 23684 ft | 426 kts | 190° |
| 2026-05-01 07:53 | 47.33725 | 11.91558 | 23912 ft | 430 kts | 190° |
| 2026-05-01 07:54 | 47.27804 | 11.90010 | 24627 ft | 432 kts | 190° |
| 2026-05-01 07:55 | 47.18904 | 11.87715 | 25630 ft | 436 kts | 190° |
| 2026-05-01 07:55 | 47.12902 | 11.86165 | 26150 ft | 442 kts | 190° |
| 2026-05-01 07:56 | 47.03730 | 11.83811 | 26729 ft | 450 kts | 190° |
| 2026-05-01 07:56 | 46.97520 | 11.82210 | 27018 ft | 456 kts | 190° |
| 2026-05-01 07:57 | 46.94391 | 11.81404 | 27223 ft | 457 kts | 190° |
| 2026-05-01 07:57 | 46.88131 | 11.79798 | 27789 ft | 457 kts | 190° |
| 2026-05-01 07:58 | 46.81838 | 11.78191 | 28274 ft | 459 kts | 190° |
| 2026-05-01 07:58 | 46.75539 | 11.76574 | 28721 ft | 462 kts | 190° |
| 2026-05-01 07:59 | 46.69194 | 11.74961 | 29127 ft | 465 kts | 190° |
| 2026-05-01 07:59 | 46.62836 | 11.73048 | 29468 ft | 468 kts | 199° |
| 2026-05-01 08:00 | 46.51843 | 11.63088 | 30332 ft | 470 kts | 217° |
| 2026-05-01 08:01 | 46.44257 | 11.54924 | 31118 ft | 467 kts | 217° |